sensor_id;sensor_type;location;lat;lon;timestamp;pressure;altitude;pressure_sealevel;temperature;humidity
5522;BME280;2783;48.730;8.006;2023-04-01T00:00:58;98819.66;;;11.86;95.36
5522;BME280;2783;48.730;8.006;2023-04-01T00:03:24;98817.66;;;11.89;94.64
5522;BME280;2783;48.730;8.006;2023-04-01T00:05:50;98780.88;;;11.65;95.01
5522;BME280;2783;48.730;8.006;2023-04-01T00:08:15;98813.38;;;11.87;94.76
5522;BME280;2783;48.730;8.006;2023-04-01T00:10:40;98820.16;;;11.93;94.73
5522;BME280;2783;48.730;8.006;2023-04-01T00:13:06;98818.34;;;11.93;95.33
5522;BME280;2783;48.730;8.006;2023-04-01T00:15:32;98824.44;;;11.95;94.89
5522;BME280;2783;48.730;8.006;2023-04-01T00:17:57;98823.50;;;11.96;94.50
5522;BME280;2783;48.730;8.006;2023-04-01T00:20:22;98815.69;;;11.93;93.96
5522;BME280;2783;48.730;8.006;2023-04-01T00:22:48;98819.38;;;11.90;94.32
5522;BME280;2783;48.730;8.006;2023-04-01T00:25:15;98822.38;;;12.00;94.11
5522;BME280;2783;48.730;8.006;2023-04-01T00:27:41;98819.31;;;11.92;93.54
5522;BME280;2783;48.730;8.006;2023-04-01T00:30:06;98808.56;;;11.93;94.26
5522;BME280;2783;48.730;8.006;2023-04-01T00:32:32;98806.56;;;11.97;93.68
5522;BME280;2783;48.730;8.006;2023-04-01T00:34:57;98808.47;;;11.95;93.00
5522;BME280;2783;48.730;8.006;2023-04-01T00:37:26;98814.66;;;11.96;93.10
5522;BME280;2783;48.730;8.006;2023-04-01T00:39:52;98826.84;;;12.00;92.56
5522;BME280;2783;48.730;8.006;2023-04-01T00:42:17;98819.34;;;12.06;92.73
5522;BME280;2783;48.730;8.006;2023-04-01T00:44:44;98821.69;;;12.12;92.38
5522;BME280;2783;48.730;8.006;2023-04-01T00:47:10;98816.78;;;12.05;91.85
5522;BME280;2783;48.730;8.006;2023-04-01T00:49:39;98826.66;;;12.03;92.06
5522;BME280;2783;48.730;8.006;2023-04-01T00:52:06;98826.94;;;11.98;91.71
5522;BME280;2783;48.730;8.006;2023-04-01T00:54:32;98812.59;;;12.01;91.82
5522;BME280;2783;48.730;8.006;2023-04-01T00:57:10;98826.00;;;11.99;92.45
5522;BME280;2783;48.730;8.006;2023-04-01T00:59:39;98814.84;;;11.93;91.54
5522;BME280;2783;48.730;8.006;2023-04-01T01:02:07;98813.97;;;11.92;91.36
5522;BME280;2783;48.730;8.006;2023-04-01T01:04:34;98816.28;;;11.98;91.18
5522;BME280;2783;48.730;8.006;2023-04-01T01:07:07;98819.81;;;11.99;91.04
5522;BME280;2783;48.730;8.006;2023-04-01T01:12:23;98812.19;;;11.93;90.51
5522;BME280;2783;48.730;8.006;2023-04-01T01:15:08;98817.41;;;11.94;90.48
5522;BME280;2783;48.730;8.006;2023-04-01T01:17:39;98817.00;;;11.86;89.32
5522;BME280;2783;48.730;8.006;2023-04-01T01:20:22;98805.38;;;11.87;89.05
5522;BME280;2783;48.730;8.006;2023-04-01T01:25:30;98797.16;;;11.76;87.46
5522;BME280;2783;48.730;8.006;2023-04-01T01:28:21;98797.97;;;11.76;87.25
5522;BME280;2783;48.730;8.006;2023-04-01T01:31:00;98797.16;;;11.76;86.37
5522;BME280;2783;48.730;8.006;2023-04-01T01:36:12;98793.63;;;11.75;86.65
5522;BME280;2783;48.730;8.006;2023-04-01T01:38:38;98784.84;;;11.73;85.67
5522;BME280;2783;48.730;8.006;2023-04-01T01:41:05;98795.75;;;11.69;86.50
5522;BME280;2783;48.730;8.006;2023-04-01T01:43:33;98787.69;;;11.70;86.90
5522;BME280;2783;48.730;8.006;2023-04-01T01:46:01;98797.09;;;11.60;86.91
5522;BME280;2783;48.730;8.006;2023-04-01T01:48:28;98786.72;;;11.56;86.69
5522;BME280;2783;48.730;8.006;2023-04-01T01:50:54;98790.25;;;11.56;87.18
5522;BME280;2783;48.730;8.006;2023-04-01T01:53:20;98794.69;;;11.56;86.77
5522;BME280;2783;48.730;8.006;2023-04-01T01:55:46;98799.69;;;11.46;87.18
5522;BME280;2783;48.730;8.006;2023-04-01T01:58:32;98796.41;;;11.57;86.89
5522;BME280;2783;48.730;8.006;2023-04-01T02:01:01;98800.03;;;11.56;87.09
5522;BME280;2783;48.730;8.006;2023-04-01T02:03:28;98789.19;;;11.43;87.24
5522;BME280;2783;48.730;8.006;2023-04-01T02:05:56;98788.34;;;11.43;87.53
5522;BME280;2783;48.730;8.006;2023-04-01T02:08:26;98804.03;;;11.32;87.27
5522;BME280;2783;48.730;8.006;2023-04-01T02:10:58;98783.69;;;11.31;88.34
5522;BME280;2783;48.730;8.006;2023-04-01T02:13:27;98796.22;;;11.29;88.33
5522;BME280;2783;48.730;8.006;2023-04-01T02:15:55;98801.38;;;11.32;88.90
5522;BME280;2783;48.730;8.006;2023-04-01T02:18:22;98795.91;;;11.35;89.99
5522;BME280;2783;48.730;8.006;2023-04-01T02:20:47;98806.63;;;11.33;89.97
5522;BME280;2783;48.730;8.006;2023-04-01T02:23:14;98794.50;;;11.28;89.80
5522;BME280;2783;48.730;8.006;2023-04-01T02:25:39;98783.44;;;11.20;90.10
5522;BME280;2783;48.730;8.006;2023-04-01T02:28:06;98788.66;;;11.21;91.19
5522;BME280;2783;48.730;8.006;2023-04-01T02:30:33;98788.94;;;11.17;91.59
5522;BME280;2783;48.730;8.006;2023-04-01T02:32:59;98795.00;;;11.19;91.61
5522;BME280;2783;48.730;8.006;2023-04-01T02:35:25;98793.72;;;11.26;91.79
5522;BME280;2783;48.730;8.006;2023-04-01T02:37:51;98791.25;;;11.23;90.79
5522;BME280;2783;48.730;8.006;2023-04-01T02:40:17;98790.91;;;11.29;91.22
5522;BME280;2783;48.730;8.006;2023-04-01T02:42:42;98782.47;;;11.21;91.21
5522;BME280;2783;48.730;8.006;2023-04-01T02:45:08;98787.63;;;11.24;90.84
5522;BME280;2783;48.730;8.006;2023-04-01T02:47:33;98779.63;;;11.24;91.21
5522;BME280;2783;48.730;8.006;2023-04-01T02:52:52;98778.53;;;11.28;89.93
5522;BME280;2783;48.730;8.006;2023-04-01T02:55:17;98772.53;;;11.24;90.45
5522;BME280;2783;48.730;8.006;2023-04-01T02:57:42;98774.09;;;11.28;90.35
5522;BME280;2783;48.730;8.006;2023-04-01T03:00:08;98781.13;;;11.29;89.24
5522;BME280;2783;48.730;8.006;2023-04-01T03:02:36;98763.75;;;11.22;89.18
5522;BME280;2783;48.730;8.006;2023-04-01T03:05:02;98767.13;;;11.26;89.28
5522;BME280;2783;48.730;8.006;2023-04-01T03:07:27;98770.28;;;11.32;89.21
5522;BME280;2783;48.730;8.006;2023-04-01T03:09:52;98776.47;;;11.33;88.59
5522;BME280;2783;48.730;8.006;2023-04-01T03:12:18;98767.44;;;11.35;88.24
5522;BME280;2783;48.730;8.006;2023-04-01T03:14:43;98771.84;;;11.36;88.13
5522;BME280;2783;48.730;8.006;2023-04-01T03:17:08;98770.81;;;11.39;87.83
5522;BME280;2783;48.730;8.006;2023-04-01T03:19:33;98773.91;;;11.47;87.86
5522;BME280;2783;48.730;8.006;2023-04-01T03:21:59;98774.59;;;11.50;87.36
5522;BME280;2783;48.730;8.006;2023-04-01T03:24:24;98778.22;;;11.49;87.51
5522;BME280;2783;48.730;8.006;2023-04-01T03:26:49;98773.72;;;11.50;87.31
5522;BME280;2783;48.730;8.006;2023-04-01T03:29:15;98771.66;;;11.55;87.25
5522;BME280;2783;48.730;8.006;2023-04-01T03:31:40;98766.34;;;11.55;86.99
5522;BME280;2783;48.730;8.006;2023-04-01T03:34:06;98769.31;;;11.66;86.61
5522;BME280;2783;48.730;8.006;2023-04-01T03:36:31;98766.66;;;11.66;87.10
5522;BME280;2783;48.730;8.006;2023-04-01T03:38:56;98755.63;;;11.72;86.54
5522;BME280;2783;48.730;8.006;2023-04-01T03:41:21;98765.31;;;11.73;86.58
5522;BME280;2783;48.730;8.006;2023-04-01T03:43:47;98755.53;;;11.73;86.34
5522;BME280;2783;48.730;8.006;2023-04-01T03:46:16;98752.78;;;11.75;86.77
5522;BME280;2783;48.730;8.006;2023-04-01T03:48:41;98745.47;;;11.78;86.14
5522;BME280;2783;48.730;8.006;2023-04-01T03:51:07;98757.94;;;11.78;85.71
5522;BME280;2783;48.730;8.006;2023-04-01T03:53:32;98752.59;;;11.78;85.74
5522;BME280;2783;48.730;8.006;2023-04-01T03:55:57;98759.50;;;11.82;85.36
5522;BME280;2783;48.730;8.006;2023-04-01T03:58:23;98755.19;;;11.79;85.31
5522;BME280;2783;48.730;8.006;2023-04-01T04:00:48;98768.25;;;11.84;85.91
5522;BME280;2783;48.730;8.006;2023-04-01T04:03:13;98761.97;;;11.85;85.58
5522;BME280;2783;48.730;8.006;2023-04-01T04:05:45;98769.03;;;11.86;85.50
5522;BME280;2783;48.730;8.006;2023-04-01T04:08:10;98762.25;;;11.80;86.62
5522;BME280;2783;48.730;8.006;2023-04-01T04:10:36;98766.53;;;11.83;86.41
5522;BME280;2783;48.730;8.006;2023-04-01T04:13:01;98756.63;;;11.85;86.54
5522;BME280;2783;48.730;8.006;2023-04-01T04:15:26;98765.69;;;11.82;85.81
5522;BME280;2783;48.730;8.006;2023-04-01T04:17:52;98765.00;;;11.79;86.46
5522;BME280;2783;48.730;8.006;2023-04-01T04:20:17;98764.81;;;11.82;86.69
5522;BME280;2783;48.730;8.006;2023-04-01T04:22:42;98766.53;;;11.83;86.59
5522;BME280;2783;48.730;8.006;2023-04-01T04:25:08;98764.91;;;11.80;87.61
5522;BME280;2783;48.730;8.006;2023-04-01T04:27:33;98757.94;;;11.78;87.05
5522;BME280;2783;48.730;8.006;2023-04-01T04:29:59;98754.66;;;11.73;87.77
5522;BME280;2783;48.730;8.006;2023-04-01T04:32:24;98771.63;;;11.72;87.53
5522;BME280;2783;48.730;8.006;2023-04-01T04:34:49;98769.03;;;11.70;88.01
5522;BME280;2783;48.730;8.006;2023-04-01T04:37:15;98760.88;;;11.73;87.71
5522;BME280;2783;48.730;8.006;2023-04-01T04:39:40;98752.97;;;11.72;87.72
5522;BME280;2783;48.730;8.006;2023-04-01T04:42:05;98762.66;;;11.73;86.85
5522;BME280;2783;48.730;8.006;2023-04-01T04:44:30;98756.50;;;11.72;86.51
5522;BME280;2783;48.730;8.006;2023-04-01T04:46:56;98751.41;;;11.68;86.50
5522;BME280;2783;48.730;8.006;2023-04-01T04:49:21;98740.22;;;11.61;85.60
5522;BME280;2783;48.730;8.006;2023-04-01T04:51:46;98747.28;;;11.62;85.25
5522;BME280;2783;48.730;8.006;2023-04-01T04:54:11;98747.47;;;11.59;84.46
5522;BME280;2783;48.730;8.006;2023-04-01T04:56:37;98748.16;;;11.63;83.87
5522;BME280;2783;48.730;8.006;2023-04-01T04:59:02;98747.13;;;11.65;84.06
5522;BME280;2783;48.730;8.006;2023-04-01T05:01:27;98744.88;;;11.58;84.01
5522;BME280;2783;48.730;8.006;2023-04-01T05:03:53;98748.84;;;11.51;83.45
5522;BME280;2783;48.730;8.006;2023-04-01T05:06:18;98749.19;;;11.45;83.51
5522;BME280;2783;48.730;8.006;2023-04-01T05:08:44;98741.94;;;11.47;84.94
5522;BME280;2783;48.730;8.006;2023-04-01T05:11:14;98735.94;;;11.43;85.58
5522;BME280;2783;48.730;8.006;2023-04-01T05:13:40;98731.84;;;11.38;87.25
5522;BME280;2783;48.730;8.006;2023-04-01T05:16:09;98730.78;;;11.40;87.89
5522;BME280;2783;48.730;8.006;2023-04-01T05:18:35;98732.75;;;11.37;88.54
5522;BME280;2783;48.730;8.006;2023-04-01T05:21:00;98735.41;;;11.37;88.60
5522;BME280;2783;48.730;8.006;2023-04-01T05:23:25;98735.94;;;11.43;88.63
5522;BME280;2783;48.730;8.006;2023-04-01T05:25:50;98733.53;;;11.39;89.49
5522;BME280;2783;48.730;8.006;2023-04-01T05:28:18;98740.75;;;11.37;91.27
5522;BME280;2783;48.730;8.006;2023-04-01T05:30:43;98737.66;;;11.29;92.32
5522;BME280;2783;48.730;8.006;2023-04-01T05:33:09;98733.28;;;11.28;93.55
5522;BME280;2783;48.730;8.006;2023-04-01T05:35:35;98733.38;;;11.26;93.72
5522;BME280;2783;48.730;8.006;2023-04-01T05:38:00;98732.94;;;11.18;95.33
5522;BME280;2783;48.730;8.006;2023-04-01T05:40:27;98731.13;;;11.19;96.16
5522;BME280;2783;48.730;8.006;2023-04-01T05:42:52;98726.13;;;10.97;96.17
5522;BME280;2783;48.730;8.006;2023-04-01T05:45:17;98733.25;;;10.97;96.91
5522;BME280;2783;48.730;8.006;2023-04-01T05:47:42;98726.91;;;10.99;97.07
5522;BME280;2783;48.730;8.006;2023-04-01T05:50:08;98732.47;;;10.95;96.62
5522;BME280;2783;48.730;8.006;2023-04-01T05:52:34;98725.59;;;10.91;95.52
5522;BME280;2783;48.730;8.006;2023-04-01T05:54:59;98723.41;;;10.99;95.38
5522;BME280;2783;48.730;8.006;2023-04-01T05:57:25;98718.41;;;10.93;95.48
5522;BME280;2783;48.730;8.006;2023-04-01T05:59:50;98734.53;;;10.90;95.98
5522;BME280;2783;48.730;8.006;2023-04-01T06:02:16;98735.50;;;11.04;95.85
5522;BME280;2783;48.730;8.006;2023-04-01T06:04:42;98731.38;;;10.99;97.12
5522;BME280;2783;48.730;8.006;2023-04-01T06:07:14;98733.88;;;11.02;95.95
5522;BME280;2783;48.730;8.006;2023-04-01T06:09:39;98733.19;;;10.98;96.35
5522;BME280;2783;48.730;8.006;2023-04-01T06:14:43;98734.72;;;11.02;96.41
5522;BME280;2783;48.730;8.006;2023-04-01T06:17:19;98730.16;;;11.04;97.96
5522;BME280;2783;48.730;8.006;2023-04-01T06:45:41;98745.75;;;11.12;100.00
5522;BME280;2783;48.730;8.006;2023-04-01T06:51:25;98751.31;;;11.23;100.00
5522;BME280;2783;48.730;8.006;2023-04-01T06:56:03;98741.25;;;11.12;100.00
5522;BME280;2783;48.730;8.006;2023-04-01T06:58:39;98755.84;;;11.21;100.00
5522;BME280;2783;48.730;8.006;2023-04-01T07:01:08;98752.28;;;11.22;100.00
5522;BME280;2783;48.730;8.006;2023-04-01T07:03:43;98751.41;;;11.21;100.00
5522;BME280;2783;48.730;8.006;2023-04-01T07:06:22;98746.78;;;11.25;100.00
5522;BME280;2783;48.730;8.006;2023-04-01T07:08:49;98755.38;;;11.30;100.00
5522;BME280;2783;48.730;8.006;2023-04-01T07:11:25;98755.19;;;11.33;100.00
5522;BME280;2783;48.730;8.006;2023-04-01T07:13:53;98748.47;;;11.10;100.00
5522;BME280;2783;48.730;8.006;2023-04-01T07:16:39;98762.38;;;11.15;100.00
5522;BME280;2783;48.730;8.006;2023-04-01T07:21:47;98748.81;;;11.20;100.00
5522;BME280;2783;48.730;8.006;2023-04-01T07:24:17;98757.59;;;11.22;100.00
5522;BME280;2783;48.730;8.006;2023-04-01T07:26:45;98762.56;;;11.28;100.00
5522;BME280;2783;48.730;8.006;2023-04-01T07:29:13;98770.28;;;11.32;100.00
5522;BME280;2783;48.730;8.006;2023-04-01T07:34:23;98775.78;;;11.29;100.00
5522;BME280;2783;48.730;8.006;2023-04-01T07:44:35;98778.72;;;11.25;100.00
5522;BME280;2783;48.730;8.006;2023-04-01T07:47:10;98785.75;;;11.26;100.00
5522;BME280;2783;48.730;8.006;2023-04-01T07:52:26;98787.75;;;11.38;100.00
5522;BME280;2783;48.730;8.006;2023-04-01T07:54:58;98780.25;;;11.29;100.00
5522;BME280;2783;48.730;8.006;2023-04-01T08:05:28;98795.81;;;11.52;100.00
5522;BME280;2783;48.730;8.006;2023-04-01T08:08:10;98798.25;;;11.56;100.00
5522;BME280;2783;48.730;8.006;2023-04-01T08:10:50;98803.75;;;11.69;100.00
5522;BME280;2783;48.730;8.006;2023-04-01T08:13:38;98804.31;;;11.58;100.00
5522;BME280;2783;48.730;8.006;2023-04-01T08:18:54;98822.09;;;11.42;100.00
5522;BME280;2783;48.730;8.006;2023-04-01T08:21:27;98816.75;;;11.42;100.00
5522;BME280;2783;48.730;8.006;2023-04-01T08:23:55;98812.91;;;11.48;100.00
5522;BME280;2783;48.730;8.006;2023-04-01T08:26:37;98814.63;;;11.49;100.00
5522;BME280;2783;48.730;8.006;2023-04-01T08:29:15;98807.59;;;11.48;100.00
5522;BME280;2783;48.730;8.006;2023-04-01T08:31:44;98803.88;;;11.50;100.00
5522;BME280;2783;48.730;8.006;2023-04-01T08:34:36;98815.16;;;11.40;100.00
5522;BME280;2783;48.730;8.006;2023-04-01T08:37:04;98816.06;;;11.39;100.00
5522;BME280;2783;48.730;8.006;2023-04-01T08:39:37;98819.50;;;11.41;100.00
5522;BME280;2783;48.730;8.006;2023-04-01T08:47:26;98807.59;;;11.48;100.00
5522;BME280;2783;48.730;8.006;2023-04-01T08:52:46;98827.84;;;11.35;100.00
5522;BME280;2783;48.730;8.006;2023-04-01T09:05:38;98827.41;;;11.42;100.00
5522;BME280;2783;48.730;8.006;2023-04-01T09:08:14;98834.03;;;11.51;100.00
5522;BME280;2783;48.730;8.006;2023-04-01T09:18:50;98844.16;;;11.60;100.00
5522;BME280;2783;48.730;8.006;2023-04-01T09:27:01;98846.19;;;11.72;100.00
5522;BME280;2783;48.730;8.006;2023-04-01T09:32:42;98853.84;;;11.78;100.00
5522;BME280;2783;48.730;8.006;2023-04-01T09:40:22;98849.97;;;11.68;100.00
5522;BME280;2783;48.730;8.006;2023-04-01T09:45:00;98852.91;;;11.79;100.00
5522;BME280;2783;48.730;8.006;2023-04-01T09:50:18;98851.63;;;11.86;100.00
5522;BME280;2783;48.730;8.006;2023-04-01T10:08:36;98867.00;;;11.81;100.00
5522;BME280;2783;48.730;8.006;2023-04-01T10:31:51;98879.13;;;11.86;100.00
5522;BME280;2783;48.730;8.006;2023-04-01T10:37:13;98879.97;;;12.03;100.00
5522;BME280;2783;48.730;8.006;2023-04-01T10:48:22;98892.53;;;12.16;100.00
5522;BME280;2783;48.730;8.006;2023-04-01T10:50:37;98889.06;;;12.14;100.00
5522;BME280;2783;48.730;8.006;2023-04-01T11:11:09;98893.47;;;12.15;100.00
5522;BME280;2783;48.730;8.006;2023-04-01T11:21:55;98894.06;;;12.05;100.00
5522;BME280;2783;48.730;8.006;2023-04-01T11:42:53;98910.66;;;12.25;100.00
5522;BME280;2783;48.730;8.006;2023-04-01T11:50:18;98907.78;;;12.44;100.00
5522;BME280;2783;48.730;8.006;2023-04-01T12:14:20;98920.00;;;12.63;96.95
5522;BME280;2783;48.730;8.006;2023-04-01T12:16:55;98933.59;;;12.59;96.41
5522;BME280;2783;48.730;8.006;2023-04-01T12:19:29;98920.53;;;12.54;95.88
5522;BME280;2783;48.730;8.006;2023-04-01T12:22:03;98926.91;;;12.52;95.59
5522;BME280;2783;48.730;8.006;2023-04-01T12:24:38;98936.63;;;12.53;95.45
5522;BME280;2783;48.730;8.006;2023-04-01T12:29:54;98939.28;;;12.37;95.60
5522;BME280;2783;48.730;8.006;2023-04-01T12:32:26;98940.06;;;12.39;96.06
5522;BME280;2783;48.730;8.006;2023-04-01T12:35:04;98944.97;;;12.31;96.06
5522;BME280;2783;48.730;8.006;2023-04-01T12:43:14;98951.34;;;12.13;97.70
5522;BME280;2783;48.730;8.006;2023-04-01T12:45:49;98954.44;;;12.21;98.99
5522;BME280;2783;48.730;8.006;2023-04-01T12:59:26;98969.16;;;12.28;100.00
5522;BME280;2783;48.730;8.006;2023-04-01T13:02:36;98964.59;;;12.30;100.00
5522;BME280;2783;48.730;8.006;2023-04-01T13:07:21;98960.13;;;12.15;100.00
5522;BME280;2783;48.730;8.006;2023-04-01T13:12:36;98956.84;;;12.26;100.00
5522;BME280;2783;48.730;8.006;2023-04-01T13:20:52;98966.31;;;12.31;100.00
5522;BME280;2783;48.730;8.006;2023-04-01T13:26:00;98943.59;;;12.24;100.00
5522;BME280;2783;48.730;8.006;2023-04-01T13:28:51;98958.47;;;12.28;100.00
5522;BME280;2783;48.730;8.006;2023-04-01T13:31:25;98954.34;;;12.38;100.00
5522;BME280;2783;48.730;8.006;2023-04-01T13:36:26;98964.22;;;12.67;100.00
5522;BME280;2783;48.730;8.006;2023-04-01T13:41:36;98966.47;;;12.59;100.00
5522;BME280;2783;48.730;8.006;2023-04-01T13:44:16;98962.41;;;12.52;100.00
5522;BME280;2783;48.730;8.006;2023-04-01T13:46:52;98960.13;;;12.46;100.00
5522;BME280;2783;48.730;8.006;2023-04-01T13:49:22;98964.25;;;12.52;100.00
5522;BME280;2783;48.730;8.006;2023-04-01T13:52:04;98964.41;;;12.64;100.00
5522;BME280;2783;48.730;8.006;2023-04-01T13:54:37;98975.47;;;12.72;100.00
5522;BME280;2783;48.730;8.006;2023-04-01T13:57:20;98970.72;;;12.77;100.00
5522;BME280;2783;48.730;8.006;2023-04-01T14:07:49;98973.69;;;12.73;100.00
5522;BME280;2783;48.730;8.006;2023-04-01T14:10:23;98978.47;;;12.82;100.00
5522;BME280;2783;48.730;8.006;2023-04-01T14:13:06;98982.19;;;12.79;100.00
5522;BME280;2783;48.730;8.006;2023-04-01T14:20:45;98979.88;;;12.73;100.00
5522;BME280;2783;48.730;8.006;2023-04-01T14:26:03;98982.28;;;12.78;100.00
5522;BME280;2783;48.730;8.006;2023-04-01T14:33:30;98979.00;;;12.73;100.00
5522;BME280;2783;48.730;8.006;2023-04-01T14:36:04;98983.47;;;12.72;100.00
5522;BME280;2783;48.730;8.006;2023-04-01T14:41:34;98981.09;;;12.52;100.00
5522;BME280;2783;48.730;8.006;2023-04-01T14:44:05;98980.16;;;12.53;100.00
5522;BME280;2783;48.730;8.006;2023-04-01T14:49:15;98975.41;;;12.43;100.00
5522;BME280;2783;48.730;8.006;2023-04-01T14:51:42;98980.59;;;12.30;100.00
5522;BME280;2783;48.730;8.006;2023-04-01T14:56:37;98981.81;;;12.40;100.00
5522;BME280;2783;48.730;8.006;2023-04-01T14:59:36;98980.06;;;12.39;100.00
5522;BME280;2783;48.730;8.006;2023-04-01T15:02:10;98980.84;;;12.41;100.00
5522;BME280;2783;48.730;8.006;2023-04-01T15:23:11;98977.81;;;12.47;100.00
5522;BME280;2783;48.730;8.006;2023-04-01T15:25:43;98966.13;;;12.50;100.00
5522;BME280;2783;48.730;8.006;2023-04-01T15:28:31;98981.09;;;12.52;100.00
5522;BME280;2783;48.730;8.006;2023-04-01T15:38:49;98981.78;;;12.71;100.00
5522;BME280;2783;48.730;8.006;2023-04-01T15:41:41;98985.03;;;12.76;100.00
5522;BME280;2783;48.730;8.006;2023-04-01T15:44:02;98986.56;;;12.80;100.00
5522;BME280;2783;48.730;8.006;2023-04-01T15:59:20;98980.03;;;12.70;100.00
5522;BME280;2783;48.730;8.006;2023-04-01T16:06:53;98972.81;;;12.72;100.00
5522;BME280;2783;48.730;8.006;2023-04-01T16:09:34;98976.94;;;12.78;100.00
5522;BME280;2783;48.730;8.006;2023-04-01T16:12:19;98969.63;;;12.81;100.00
5522;BME280;2783;48.730;8.006;2023-04-01T16:15:03;98975.47;;;12.88;100.00
5522;BME280;2783;48.730;8.006;2023-04-01T16:20:02;98973.28;;;12.94;100.00
5522;BME280;2783;48.730;8.006;2023-04-01T16:22:35;98965.09;;;12.97;100.00
5522;BME280;2783;48.730;8.006;2023-04-01T16:27:40;98978.63;;;12.94;100.00
5522;BME280;2783;48.730;8.006;2023-04-01T16:30:22;98959.84;;;12.96;100.00
5522;BME280;2783;48.730;8.006;2023-04-01T16:32:54;98969.66;;;12.95;100.00
5522;BME280;2783;48.730;8.006;2023-04-01T16:35:35;98982.97;;;12.81;100.00
5522;BME280;2783;48.730;8.006;2023-04-01T16:38:05;99010.94;;;12.74;100.00
5522;BME280;2783;48.730;8.006;2023-04-01T16:43:06;99055.94;;;12.49;100.00
5522;BME280;2783;48.730;8.006;2023-04-01T16:45:40;99044.47;;;12.16;100.00
5522;BME280;2783;48.730;8.006;2023-04-01T16:53:09;99042.53;;;11.70;100.00
5522;BME280;2783;48.730;8.006;2023-04-01T16:55:49;99040.50;;;11.75;100.00
5522;BME280;2783;48.730;8.006;2023-04-01T17:01:04;99041.44;;;11.57;100.00
5522;BME280;2783;48.730;8.006;2023-04-01T17:03:32;99046.66;;;11.58;100.00
5522;BME280;2783;48.730;8.006;2023-04-01T17:09:01;99045.38;;;11.67;100.00
5522;BME280;2783;48.730;8.006;2023-04-01T17:11:31;99054.16;;;11.69;100.00
5522;BME280;2783;48.730;8.006;2023-04-01T17:39:34;99088.44;;;11.75;100.00
5522;BME280;2783;48.730;8.006;2023-04-01T17:42:14;99094.25;;;11.66;100.00
5522;BME280;2783;48.730;8.006;2023-04-01T17:45:01;99090.16;;;11.59;100.00
5522;BME280;2783;48.730;8.006;2023-04-01T17:58:09;99096.53;;;11.21;100.00
5522;BME280;2783;48.730;8.006;2023-04-01T18:00:51;99099.13;;;11.05;100.00
5522;BME280;2783;48.730;8.006;2023-04-01T18:03:24;99105.81;;;10.95;100.00
5522;BME280;2783;48.730;8.006;2023-04-01T18:06:03;99097.91;;;10.94;100.00
5522;BME280;2783;48.730;8.006;2023-04-01T18:11:13;99108.97;;;11.03;100.00
5522;BME280;2783;48.730;8.006;2023-04-01T18:16:18;99116.00;;;11.04;100.00
5522;BME280;2783;48.730;8.006;2023-04-01T18:21:33;99118.75;;;11.03;100.00
5522;BME280;2783;48.730;8.006;2023-04-01T18:26:34;99113.91;;;11.11;100.00
5522;BME280;2783;48.730;8.006;2023-04-01T18:29:13;99118.16;;;11.15;100.00
5522;BME280;2783;48.730;8.006;2023-04-01T18:32:07;99113.66;;;11.15;100.00
5522;BME280;2783;48.730;8.006;2023-04-01T18:37:38;99123.47;;;11.15;100.00
5522;BME280;2783;48.730;8.006;2023-04-01T18:40:00;99126.78;;;11.20;100.00
5522;BME280;2783;48.730;8.006;2023-04-01T18:42:33;99132.56;;;11.28;100.00
5522;BME280;2783;48.730;8.006;2023-04-01T18:45:37;99132.41;;;11.31;100.00
5522;BME280;2783;48.730;8.006;2023-04-01T18:47:57;99135.66;;;11.37;100.00
5522;BME280;2783;48.730;8.006;2023-04-01T18:50:38;99139.41;;;11.33;100.00
5522;BME280;2783;48.730;8.006;2023-04-01T18:58:16;99158.25;;;11.29;100.00
5522;BME280;2783;48.730;8.006;2023-04-01T19:00:52;99155.19;;;11.19;100.00
5522;BME280;2783;48.730;8.006;2023-04-01T19:03:21;99164.69;;;11.25;100.00
5522;BME280;2783;48.730;8.006;2023-04-01T19:05:48;99160.84;;;11.30;100.00
5522;BME280;2783;48.730;8.006;2023-04-01T19:08:18;99166.72;;;11.37;100.00
5522;BME280;2783;48.730;8.006;2023-04-01T19:13:31;99163.28;;;11.35;100.00
5522;BME280;2783;48.730;8.006;2023-04-01T19:16:04;99170.19;;;11.39;100.00
5522;BME280;2783;48.730;8.006;2023-04-01T19:23:58;99178.31;;;11.36;100.00
5522;BME280;2783;48.730;8.006;2023-04-01T19:26:27;99178.25;;;11.37;100.00
5522;BME280;2783;48.730;8.006;2023-04-01T19:28:56;99183.41;;;11.40;100.00
5522;BME280;2783;48.730;8.006;2023-04-01T19:36:54;99171.91;;;11.40;100.00
5522;BME280;2783;48.730;8.006;2023-04-01T19:39:38;99177.25;;;11.40;100.00
5522;BME280;2783;48.730;8.006;2023-04-01T19:47:08;99188.25;;;11.32;100.00
5522;BME280;2783;48.730;8.006;2023-04-01T19:49:57;99185.66;;;11.31;100.00
5522;BME280;2783;48.730;8.006;2023-04-01T19:57:20;99188.03;;;11.37;100.00
5522;BME280;2783;48.730;8.006;2023-04-01T20:04:44;99204.56;;;11.43;100.00
5522;BME280;2783;48.730;8.006;2023-04-01T20:07:12;99205.59;;;11.41;100.00
5522;BME280;2783;48.730;8.006;2023-04-01T20:22:00;99225.44;;;11.34;100.00
5522;BME280;2783;48.730;8.006;2023-04-01T20:24:41;99238.34;;;11.24;100.00
5522;BME280;2783;48.730;8.006;2023-04-01T20:27:14;99227.78;;;11.23;100.00
5522;BME280;2783;48.730;8.006;2023-04-01T20:32:37;99240.09;;;11.07;100.00
5522;BME280;2783;48.730;8.006;2023-04-01T20:38:11;99249.63;;;11.11;100.00
5522;BME280;2783;48.730;8.006;2023-04-01T20:45:48;99259.69;;;11.04;100.00
5522;BME280;2783;48.730;8.006;2023-04-01T20:48:21;99267.09;;;10.98;100.00
5522;BME280;2783;48.730;8.006;2023-04-01T20:51:06;99262.31;;;10.87;100.00
5522;BME280;2783;48.730;8.006;2023-04-01T21:06:44;99281.53;;;10.74;100.00
5522;BME280;2783;48.730;8.006;2023-04-01T21:14:13;99274.75;;;10.67;100.00
5522;BME280;2783;48.730;8.006;2023-04-01T21:21:50;99283.41;;;10.72;100.00
5522;BME280;2783;48.730;8.006;2023-04-01T21:27:10;99288.06;;;10.67;100.00
5522;BME280;2783;48.730;8.006;2023-04-01T21:32:08;99291.44;;;10.70;100.00
5522;BME280;2783;48.730;8.006;2023-04-01T21:52:28;99291.50;;;10.69;100.00
5522;BME280;2783;48.730;8.006;2023-04-01T21:58:01;99299.22;;;10.75;
5522;BME280;2783;48.730;8.006;2023-04-01T22:00:32;99299.50;;;10.69;100.00
5522;BME280;2783;48.730;8.006;2023-04-01T22:05:39;99299.03;;;10.59;100.00
5522;BME280;2783;48.730;8.006;2023-04-01T22:10:42;99304.75;;;10.70;100.00
5522;BME280;2783;48.730;8.006;2023-04-01T22:13:20;99300.38;;;10.69;100.00
5522;BME280;2783;48.730;8.006;2023-04-01T22:15:52;99295.75;;;10.73;100.00
5522;BME280;2783;48.730;8.006;2023-04-01T22:23:47;99308.78;;;10.79;100.00
5522;BME280;2783;48.730;8.006;2023-04-01T22:31:19;99311.16;;;10.85;100.00